El Jadida, Morocco

3:01 PM WEST on August 28, 2015 (GMT +0100)
Mohamed V | | Change Station
CLOSE
Current Station
Airport
Location: Nouasseur,
Elevation: 676 ft
Nearby Weather Stations

Elev 676 ft 33.37 °N, 7.59 °W | Updated 31 minutes ago

Partly Cloudy
Partly Cloudy
86 °F
Feels Like 90 °F
N
14
Wind Variable Wind from NNW

Today
High -- | Low -- °F
--% Chance of Precip.
Yesterday
High -- | Low -- °F
Precip. -- in
7:05 AM 8:04 PM
Waxing Gibbous, 98% visible
Pressure 29.89 in
Visibility 6.2 miles
Clouds Few 2000 ft
Heat Index 90 °F
Dew Point 70 °F
Humidity 58%
Rainfall 0.00 in
Snow Depth Not available.
UV 10 out of 12
Pollen Not available.
Air Quality Not available.
Flu Activity Not available.
METAR GMMN 281330Z 34012KT 9999 FEW020 30/21 Q1012 NOSIG
Pressure 29.89 in
Visibility 6.2 miles
Clouds Few 2000 ft
Heat Index 90 °F
Dew Point 70 °F
Humidity 58%
Rainfall 0.00 in
Snow Depth Not available.
UV 10 out of 12
Pollen Not available.
Air Quality Not available.
Flu Activity Not available.
METAR GMMN 281330Z 34012KT 9999 FEW020 30/21 Q1012 NOSIG

10-Day Weather Forecast

×

Almanac

Astronomy

Aug. 28, 2015 Rise Set
Actual Time
Civil Twilight
Nautical Twilight
Astronomical Twilight
Moon
Length of Visible Light
Length of Day
Tomorrow will be .
, % of the Moon is Illuminated

Today's Extremes

Country Highs Country Lows

Community

WunderPhotos

Upload Photos

1,850,379 photos uploaded!

WunderBlogs® & News

Nearby

Air Quality

  Air Quality AQ Index Pollutant
Not available.

Snow Depth

Station Depth Elevation

Earthquake Activity

City Distance Mag. Time & Date
Minimum magnitude displayed is 2.5.

Coastal Water Temperatures

Place Temperature

Stations

Nearby Weather Stations

Station Location Temp. Windchill Dew Point Humidity Wind Precip. Elev Updated Type